Time;durP1;ratioP1;P1;durP2;ratioP2;P2;SDS_P1;SDS_P2;PMS_P1;PMS_P2;Temp;Humidity;BMP_temperature;BMP_pressure;BME280_temperature;BME280_humidity;BME280_pressure;Samples;Min_cycle;Max_cycle;Signal;HPM_P1;HPM_P2
2022/01/23 00:01:54;;;;;;;8.95;5.50;;;4.50;99.90;;;;;;5084535;28;20031;-87
2022/01/23 00:04:19;;;;;;;13.90;5.07;;;4.50;99.90;;;;;;5074415;28;20055;-88
2022/01/23 00:06:46;;;;;;;14.82;7.03;;;4.50;99.90;;;;;;5091838;28;20507;-88
2022/01/23 00:09:14;;;;;;;11.23;6.40;;;4.50;99.90;;;;;;5074309;28;20408;-88
2022/01/23 00:11:51;;;;;;;10.80;6.78;;;4.50;99.90;;;;;;5093386;28;20078;-87
2022/01/23 00:20:07;;;;;;;11.73;6.25;;;4.50;99.90;;;;;;5096439;28;20039;-88
2022/01/23 00:22:56;;;;;;;13.50;7.28;;;4.60;99.90;;;;;;5086728;28;20028;-88
2022/01/23 00:30:59;;;;;;;11.10;6.45;;;4.50;99.90;;;;;;5095823;28;20085;-88
2022/01/23 00:33:25;;;;;;;18.15;7.43;;;4.50;99.90;;;;;;5095493;28;20111;-88
2022/01/23 00:35:51;;;;;;;16.15;7.50;;;4.60;99.90;;;;;;5095763;28;20408;-88
2022/01/23 00:38:17;;;;;;;17.20;8.07;;;4.60;99.90;;;;;;5095379;28;20024;-88
2022/01/23 00:40:45;;;;;;;12.73;8.38;;;4.60;99.90;;;;;;5077320;28;20118;-88
2022/01/23 00:43:25;;;;;;;14.75;8.13;;;4.60;99.90;;;;;;5095396;28;20526;-88
2022/01/23 00:51:37;;;;;;;14.13;7.32;;;4.60;99.90;;;;;;5095070;28;20074;-88
2022/01/23 00:54:20;;;;;;;12.75;8.02;;;4.60;99.90;;;;;;5095365;28;20556;-88
2022/01/23 00:56:46;;;;;;;13.32;7.70;;;4.60;99.90;;;;;;5077126;28;20024;-89
2022/01/23 00:59:12;;;;;;;10.45;7.30;;;4.60;99.90;;;;;;5095042;28;20036;-89
2022/01/23 01:01:37;;;;;;;11.20;7.85;;;4.60;99.90;;;;;;5094903;28;20102;-89
2022/01/23 01:04:04;;;;;;;10.18;7.57;;;4.50;99.90;;;;;;5094673;28;20391;-89
2022/01/23 01:06:35;;;;;;;13.27;8.93;;;4.50;99.90;;;;;;5076975;28;20070;-88
2022/01/23 01:09:05;;;;;;;18.67;9.35;;;4.50;99.90;;;;;;5094994;28;20445;-88
2022/01/23 01:14:30;;;;;;;16.58;8.60;;;4.60;99.90;;;;;;5094713;28;20050;-88
2022/01/23 01:17:41;;;;;;;17.63;9.70;;;4.60;99.90;;;;;;5076885;28;20027;-88
2022/01/23 01:31:44;;;;;;;18.77;11.63;;;4.60;99.90;;;;;;5084618;28;20027;-88
2022/01/23 01:34:23;;;;;;;14.65;9.98;;;4.60;99.90;;;;;;5075882;28;20032;-88
2022/01/23 01:37:01;;;;;;;13.35;10.40;;;4.60;99.90;;;;;;5094263;28;20054;-88
2022/01/23 01:39:28;;;;;;;19.17;10.23;;;4.60;99.90;;;;;;5094303;28;20482;-88
2022/01/23 01:42:04;;;;;;;17.52;10.18;;;4.60;99.90;;;;;;5094406;28;20024;-87
2022/01/23 01:44:30;;;;;;;18.33;9.43;;;4.60;99.90;;;;;;5094390;28;20038;-88
2022/01/23 01:46:56;;;;;;;11.82;8.82;;;4.60;99.90;;;;;;5093884;28;20400;-88
2022/01/23 01:49:31;;;;;;;14.77;9.55;;;4.60;99.90;;;;;;5093915;28;20043;-87
2022/01/23 01:51:59;;;;;;;13.25;9.88;;;4.60;99.90;;;;;;5093695;28;20387;-89
2022/01/23 01:54:35;;;;;;;15.93;10.60;;;4.50;99.90;;;;;;5080766;28;20028;-88
2022/01/23 01:57:07;;;;;;;16.20;10.57;;;4.50;99.90;;;;;;5094125;28;20020;-88
2022/01/23 02:10:29;;;;;;;19.70;13.65;;;4.50;99.90;;;;;;5093913;28;20045;-89
2022/01/23 02:13:11;;;;;;;22.13;13.52;;;4.50;99.90;;;;;;5093655;28;20357;-88
2022/01/23 02:51:04;;;;;;;21.98;12.68;;;4.50;99.90;;;;;;5092969;28;20038;-88
2022/01/23 02:54:03;;;;;;;23.50;13.65;;;4.50;99.90;;;;;;5074795;28;20567;-88
2022/01/23 02:56:34;;;;;;;21.40;11.82;;;4.50;99.90;;;;;;5093013;28;20099;-88
2022/01/23 02:59:11;;;;;;;20.45;11.70;;;4.50;99.90;;;;;;5092687;28;20114;-88
2022/01/23 03:04:36;;;;;;;24.77;11.68;;;4.50;99.90;;;;;;5093511;28;20430;-88
2022/01/23 03:07:53;;;;;;;21.92;11.68;;;4.50;99.90;;;;;;5092558;28;20016;-89
2022/01/23 03:10:26;;;;;;;;;;;4.50;99.90;;;;;;5075711;28;20376;-88
2022/01/23 03:26:53;;;;;;;19.27;11.85;;;4.50;99.90;;;;;;5093002;28;20031;-88
2022/01/23 03:29:24;;;;;;;18.77;11.77;;;4.50;99.90;;;;;;5092611;28;20078;-88
2022/01/23 03:34:27;;;;;;;23.30;13.85;;;4.50;99.90;;;;;;5093197;28;20475;-88
2022/01/23 03:36:54;;;;;;;24.77;12.23;;;4.50;99.90;;;;;;5092008;28;20039;-88
2022/01/23 03:39:20;;;;;;;25.88;12.52;;;4.50;99.90;;;;;;5092756;28;20101;-88
2022/01/23 03:41:47;;;;;;;21.33;13.18;;;4.50;99.90;;;;;;5092400;28;20027;-88
2022/01/23 03:44:15;;;;;;;24.38;12.77;;;4.50;99.90;;;;;;5092655;28;20077;-84
2022/01/23 03:49:34;;;;;;;19.73;12.30;;;4.40;99.90;;;;;;5096963;28;20028;-84
2022/01/23 03:52:09;;;;;;;24.65;13.30;;;4.40;99.90;;;;;;5096024;28;20023;-85
2022/01/23 03:54:36;;;;;;;21.63;12.50;;;4.50;99.90;;;;;;5078414;28;20545;-85
2022/01/23 03:57:03;;;;;;;29.73;12.55;;;4.40;99.90;;;;;;5096318;28;20016;-84
2022/01/23 03:59:30;;;;;;;23.13;12.90;;;4.40;99.90;;;;;;5096335;28;20028;-84
2022/01/23 04:01:55;;;;;;;18.90;12.57;;;4.40;99.90;;;;;;5096116;28;20016;-84
2022/01/23 04:06:53;;;;;;;24.13;13.23;;;4.40;99.90;;;;;;5095800;28;20476;-84
2022/01/23 04:09:18;;;;;;;29.45;13.77;;;4.50;99.90;;;;;;5078075;28;20028;-84
2022/01/23 04:11:45;;;;;;;18.45;12.13;;;4.40;99.90;;;;;;5077481;28;20074;-85
2022/01/23 04:14:13;;;;;;;22.48;13.65;;;4.40;99.90;;;;;;5095993;28;20024;-84
2022/01/23 04:17:05;;;;;;;18.23;12.98;;;4.40;99.90;;;;;;5077767;28;20472;-85
2022/01/23 05:01:03;;;;;;;12.90;9.05;;;4.40;99.90;;;;;;5095596;28;20415;-84
2022/01/23 05:06:36;;;;;;;14.63;9.43;;;4.40;99.90;;;;;;5094895;28;20078;-85
2022/01/23 05:09:02;;;;;;;11.88;8.85;;;4.40;99.90;;;;;;5080482;28;20016;-84
2022/01/23 05:11:27;;;;;;;15.98;10.43;;;4.40;99.90;;;;;;5074698;28;20032;-85
2022/01/23 05:14:03;;;;;;;12.00;9.65;;;4.40;99.90;;;;;;5086718;28;20024;-84
2022/01/23 05:16:33;;;;;;;12.88;9.32;;;4.40;99.90;;;;;;5074745;28;20108;-85
2022/01/23 05:19:00;;;;;;;14.63;9.45;;;4.30;99.90;;;;;;5074629;28;20457;-84
2022/01/23 05:24:04;;;;;;;16.15;9.32;;;4.40;99.90;;;;;;5091240;28;20032;-84
2022/01/23 05:26:31;;;;;;;14.98;9.52;;;4.30;99.90;;;;;;5094574;28;20495;-84
2022/01/23 05:29:10;;;;;;;15.98;10.02;;;4.30;99.90;;;;;;5091921;28;20472;-84
2022/01/23 05:31:36;;;;;;;12.25;9.65;;;4.30;99.90;;;;;;5074265;28;20392;-85
2022/01/23 05:34:02;;;;;;;15.00;8.95;;;4.40;99.90;;;;;;5074283;28;20032;-85
2022/01/23 05:36:42;;;;;;;15.15;9.52;;;4.30;99.90;;;;;;5073937;28;20487;-84
2022/01/23 05:39:07;;;;;;;17.67;10.10;;;4.30;99.90;;;;;;5074185;28;20021;-83
2022/01/23 05:41:33;;;;;;;13.32;8.85;;;4.30;99.90;;;;;;5074009;28;20069;-84
2022/01/23 05:44:12;;;;;;;16.58;8.80;;;4.30;99.90;;;;;;5074212;28;20028;-84
2022/01/23 05:46:39;;;;;;;11.32;8.73;;;4.30;99.90;;;;;;5080312;28;20040;-84
2022/01/23 05:49:06;;;;;;;15.07;8.07;;;4.30;99.90;;;;;;5094283;28;20024;-84
2022/01/23 05:51:31;;;;;;;9.75;7.40;;;4.30;99.90;;;;;;5093824;28;20076;-84
2022/01/23 05:54:00;;;;;;;11.63;7.55;;;4.30;99.90;;;;;;5093777;28;20036;-84
2022/01/23 05:56:26;;;;;;;14.20;7.60;;;4.30;99.90;;;;;;5084590;28;20035;-84
2022/01/23 05:58:54;;;;;;;9.57;6.55;;;4.30;99.90;;;;;;5090436;28;20016;-84
2022/01/23 06:01:19;;;;;;;10.05;7.45;;;4.30;99.90;;;;;;5092612;28;20029;-84
2022/01/23 06:03:45;;;;;;;13.38;7.32;;;4.30;99.90;;;;;;5093631;28;20028;-84
2022/01/23 06:06:11;;;;;;;10.55;5.93;;;4.30;99.90;;;;;;5093061;28;20103;-83
2022/01/23 06:08:37;;;;;;;11.13;5.68;;;4.30;99.90;;;;;;5093729;28;20024;-84
2022/01/23 06:11:02;;;;;;;9.80;5.63;;;4.30;99.90;;;;;;5093731;28;20020;-84
2022/01/23 06:13:28;;;;;;;6.22;4.78;;;4.30;99.90;;;;;;5075264;28;20054;-84
2022/01/23 06:15:57;;;;;;;9.93;5.53;;;4.40;99.90;;;;;;5093475;28;20035;-84
2022/01/23 06:18:22;;;;;;;8.48;5.72;;;4.30;99.90;;;;;;5093460;28;20024;-84
2022/01/23 06:20:48;;;;;;;5.25;4.50;;;4.30;99.90;;;;;;5074990;28;20542;-84
2022/01/23 06:23:14;;;;;;;7.90;4.30;;;4.30;99.90;;;;;;5093427;28;20027;-85
2022/01/23 06:25:46;;;;;;;6.15;3.78;;;4.30;99.90;;;;;;5093486;28;20020;-84
2022/01/23 06:28:18;;;;;;;4.53;3.30;;;4.30;99.90;;;;;;5079400;28;20025;-84
2022/01/23 06:30:46;;;;;;;3.17;2.70;;;4.40;99.90;;;;;;5113767;28;20120;-84
2022/01/23 06:33:11;;;;;;;6.90;3.97;;;4.30;99.90;;;;;;5112576;28;20058;-84
2022/01/23 06:35:37;;;;;;;4.72;3.17;;;4.40;99.90;;;;;;5112944;28;20055;-84
2022/01/23 06:38:03;;;;;;;3.83;2.90;;;4.40;99.90;;;;;;5113465;28;20016;-85
2022/01/23 06:40:29;;;;;;;4.93;3.03;;;4.30;99.90;;;;;;5095144;28;20023;-84
2022/01/23 06:42:54;;;;;;;4.40;2.97;;;4.40;99.90;;;;;;5094966;28;20016;-84
2022/01/23 06:45:20;;;;;;;2.17;2.03;;;4.40;99.90;;;;;;5109328;28;20056;-84
2022/01/23 06:47:46;;;;;;;2.70;2.15;;;4.40;99.90;;;;;;5113272;28;20076;-84
2022/01/23 06:50:12;;;;;;;4.78;1.90;;;4.50;99.90;;;;;;5094953;28;20479;-84
2022/01/23 06:52:37;;;;;;;2.10;2.00;;;4.40;99.90;;;;;;5079029;28;20145;-84
2022/01/23 06:55:03;;;;;;;3.10;2.20;;;4.50;99.90;;;;;;5112846;28;20034;-84
2022/01/23 06:57:29;;;;;;;3.05;1.80;;;4.50;99.90;;;;;;5096860;28;20023;-84
2022/01/23 06:59:54;;;;;;;2.22;2.03;;;4.50;99.90;;;;;;5113070;28;20095;-84
2022/01/23 07:02:20;;;;;;;3.33;1.60;;;4.50;99.90;;;;;;5078709;28;20016;-84
2022/01/23 07:04:45;;;;;;;2.80;1.85;;;4.50;99.90;;;;;;5112799;28;20387;-84
2022/01/23 07:07:11;;;;;;;1.75;1.63;;;4.50;99.90;;;;;;5097373;28;20028;-84
2022/01/23 07:09:38;;;;;;;2.35;1.40;;;4.50;99.90;;;;;;5109762;28;20058;-84
2022/01/23 07:12:04;;;;;;;1.65;1.55;;;4.50;99.90;;;;;;5092036;28;20024;-84
2022/01/23 07:14:30;;;;;;;1.50;1.40;;;4.50;99.90;;;;;;5091517;28;20111;-84
2022/01/23 07:16:56;;;;;;;1.55;1.45;;;4.50;99.90;;;;;;5097833;28;20438;-84
2022/01/23 07:19:21;;;;;;;4.82;1.33;;;4.50;99.90;;;;;;5094264;28;20042;-84
2022/01/23 07:21:47;;;;;;;2.78;1.70;;;4.50;99.90;;;;;;5102113;28;20379;-84
2022/01/23 07:24:12;;;;;;;1.65;1.55;;;4.50;99.90;;;;;;5101273;28;20031;-84
2022/01/23 07:26:38;;;;;;;5.78;2.35;;;4.50;99.90;;;;;;5084941;28;20035;-84
2022/01/23 07:29:05;;;;;;;2.25;2.08;;;4.50;99.90;;;;;;5119510;28;20476;-84
2022/01/23 07:34:06;;;;;;;1.60;1.50;;;4.60;99.90;;;;;;5119378;28;20023;-84
2022/01/23 07:36:33;;;;;;;1.52;1.42;;;4.60;99.90;;;;;;5114792;28;20020;-84
2022/01/23 07:38:58;;;;;;;3.05;1.35;;;4.60;99.90;;;;;;5081232;28;20484;-84
2022/01/23 07:41:24;;;;;;;2.53;1.77;;;4.60;99.90;;;;;;5106045;28;20054;-85
2022/01/23 07:43:50;;;;;;;1.65;1.55;;;4.60;99.90;;;;;;5087042;28;20057;-84
2022/01/23 07:46:16;;;;;;;1.40;1.30;;;4.70;99.90;;;;;;5112986;28;20492;-84
2022/01/23 07:48:41;;;;;;;1.40;1.30;;;4.70;99.90;;;;;;5112893;28;20030;-84
2022/01/23 07:51:10;;;;;;;1.55;1.45;;;4.70;99.90;;;;;;5096177;28;20020;-84
2022/01/23 07:53:35;;;;;;;2.90;1.80;;;4.70;99.90;;;;;;5115164;28;20511;-84
2022/01/23 07:56:02;;;;;;;5.28;2.08;;;4.70;99.90;;;;;;5105747;28;20038;-85
2022/01/23 07:58:28;;;;;;;6.35;3.70;;;4.70;99.90;;;;;;5100732;28;20102;-85
2022/01/23 08:00:54;;;;;;;13.57;5.57;;;4.70;99.90;;;;;;5098598;28;20503;-84
2022/01/23 08:03:20;;;;;;;6.32;3.20;;;4.70;99.90;;;;;;5098998;28;20380;-84
2022/01/23 08:05:46;;;;;;;3.25;2.08;;;4.80;99.90;;;;;;5098493;28;20024;-84
2022/01/23 08:08:12;;;;;;;2.30;2.08;;;4.80;99.90;;;;;;5118724;28;20026;-84
2022/01/23 08:10:38;;;;;;;3.05;2.20;;;4.80;99.90;;;;;;5099603;28;20028;-84
2022/01/23 08:13:05;;;;;;;2.72;1.95;;;4.80;99.90;;;;;;5112491;28;20364;-85
2022/01/23 08:15:31;;;;;;;4.00;2.17;;;4.90;99.90;;;;;;5098336;28;20062;-85
2022/01/23 08:18:07;;;;;;;2.42;1.92;;;4.80;99.90;;;;;;5081943;28;20016;-84
2022/01/23 08:20:34;;;;;;;4.10;2.13;;;4.90;99.90;;;;;;5107699;28;20024;-84
2022/01/23 08:23:04;;;;;;;3.60;1.63;;;4.90;99.90;;;;;;5116154;28;20035;-84
2022/01/23 08:25:31;;;;;;;2.25;1.75;;;5.00;99.90;;;;;;5096726;28;20062;-85
2022/01/23 08:27:57;;;;;;;2.22;1.88;;;5.00;99.90;;;;;;5098557;28;20034;-84
2022/01/23 08:30:23;;;;;;;2.15;1.88;;;5.00;99.90;;;;;;5098381;28;20024;-84
2022/01/23 08:32:49;;;;;;;4.43;1.85;;;5.00;99.90;;;;;;5076317;28;20494;-84
2022/01/23 08:35:15;;;;;;;1.95;1.48;;;5.10;99.90;;;;;;5095079;28;20036;-84
2022/01/23 08:37:40;;;;;;;1.58;1.02;;;5.10;99.90;;;;;;5076995;28;20115;-85
2022/01/23 08:40:17;;;;;;;1.40;1.30;;;5.20;99.90;;;;;;5094935;28;20044;-84
2022/01/23 08:42:45;;;;;;;2.95;1.30;;;5.20;99.90;;;;;;5102396;28;20126;-84
2022/01/23 08:45:11;;;;;;;0.93;0.80;;;5.20;99.90;;;;;;5114443;28;20140;-85
2022/01/23 08:47:36;;;;;;;0.88;0.88;;;5.20;99.90;;;;;;5095228;28;20505;-84
2022/01/23 08:50:03;;;;;;;0.70;0.70;;;5.20;99.90;;;;;;5099349;28;20035;-84
2022/01/23 08:52:28;;;;;;;1.20;0.73;;;5.20;99.90;;;;;;5100300;28;20019;-84
2022/01/23 08:54:56;;;;;;;0.60;0.60;;;5.20;99.90;;;;;;5093314;28;20039;-84
2022/01/23 08:57:24;;;;;;;0.80;0.80;;;5.20;99.90;;;;;;5094563;28;20024;-84
2022/01/23 08:59:50;;;;;;;2.15;1.02;;;5.30;99.90;;;;;;5094099;28;20020;-84
2022/01/23 09:02:17;;;;;;;1.05;1.05;;;5.30;99.90;;;;;;5076757;28;20483;-84
2022/01/23 09:04:44;;;;;;;1.13;1.13;;;5.40;99.90;;;;;;5102658;28;20091;-84
2022/01/23 09:07:15;;;;;;;1.33;1.30;;;5.40;99.90;;;;;;5075652;28;20028;-84
2022/01/23 09:09:41;;;;;;;2.08;1.45;;;5.40;99.90;;;;;;5093405;28;20361;-84
2022/01/23 09:12:26;;;;;;;1.30;1.20;;;5.40;99.90;;;;;;5094940;28;20035;-84
2022/01/23 09:14:51;;;;;;;3.70;1.13;;;5.40;99.90;;;;;;5094748;28;20016;-85
2022/01/23 09:17:17;;;;;;;1.60;1.17;;;5.40;99.90;;;;;;5094514;28;20035;-84
2022/01/23 09:19:46;;;;;;;1.55;1.00;;;5.40;99.90;;;;;;5070747;28;20028;-84
2022/01/23 09:22:12;;;;;;;1.25;1.20;;;5.40;99.90;;;;;;5093565;28;20454;-85
2022/01/23 09:24:38;;;;;;;3.72;1.40;;;5.40;99.90;;;;;;5085165;28;20181;-85
2022/01/23 09:27:07;;;;;;;1.60;1.20;;;5.40;99.90;;;;;;5100659;28;20039;-84
2022/01/23 09:29:39;;;;;;;1.23;1.00;;;5.40;99.90;;;;;;5093858;28;20471;-85
2022/01/23 09:32:10;;;;;;;1.42;1.33;;;5.40;99.90;;;;;;5093938;28;20013;-84
2022/01/23 09:34:36;;;;;;;1.10;1.00;;;5.50;99.90;;;;;;5093397;28;20098;-84
2022/01/23 09:37:07;;;;;;;1.52;1.42;;;5.50;99.90;;;;;;5111737;28;20434;-84
2022/01/23 09:39:36;;;;;;;1.20;1.17;;;5.40;99.90;;;;;;5096060;28;20365;-85
2022/01/23 09:42:07;;;;;;;1.38;1.27;;;5.50;99.90;;;;;;5114432;28;20042;-84
2022/01/23 09:44:43;;;;;;;1.52;1.42;;;5.50;99.90;;;;;;5114304;28;20383;-85
2022/01/23 09:47:13;;;;;;;2.53;1.50;;;5.50;99.90;;;;;;5109066;28;20443;-85
2022/01/23 09:49:39;;;;;;;1.40;1.30;;;5.50;99.90;;;;;;5111602;28;20063;-85
2022/01/23 09:52:08;;;;;;;1.40;1.30;;;5.50;99.90;;;;;;5114227;28;20467;-85
2022/01/23 09:54:38;;;;;;;1.30;1.25;;;5.60;99.90;;;;;;5096077;28;20436;-86
2022/01/23 09:57:07;;;;;;;1.67;1.58;;;5.60;99.90;;;;;;5114625;28;20103;-86
2022/01/23 09:59:33;;;;;;;1.63;1.52;;;5.60;99.90;;;;;;5093206;28;20024;-86
2022/01/23 10:02:12;;;;;;;1.50;1.40;;;5.60;99.90;;;;;;5114312;28;20027;-86
2022/01/23 10:04:38;;;;;;;1.60;1.50;;;5.60;99.90;;;;;;5055704;28;20553;-86
2022/01/23 10:07:05;;;;;;;1.80;1.65;;;5.70;99.90;;;;;;5073198;28;20025;-86
2022/01/23 10:09:32;;;;;;;2.45;1.55;;;5.70;99.90;;;;;;5112668;28;20058;-87
2022/01/23 10:11:58;;;;;;;2.00;1.90;;;5.60;99.90;;;;;;5093528;28;20020;-86
2022/01/23 10:14:23;;;;;;;1.90;1.80;;;5.70;99.90;;;;;;5093657;28;20032;-86
2022/01/23 10:17:06;;;;;;;4.97;2.13;;;5.70;99.90;;;;;;5093792;28;20026;-85
2022/01/23 10:19:32;;;;;;;2.22;2.03;;;5.80;99.90;;;;;;5093893;28;20050;-86
2022/01/23 10:22:00;;;;;;;2.63;1.90;;;5.80;99.90;;;;;;5093092;28;20127;-85
2022/01/23 10:24:30;;;;;;;1.95;1.77;;;5.80;99.90;;;;;;5093411;28;20020;-86
2022/01/23 10:26:59;;;;;;;1.80;1.70;;;5.80;99.90;;;;;;5093506;28;20034;-86
2022/01/23 10:29:30;;;;;;;1.98;1.67;;;5.70;99.90;;;;;;5093446;28;20380;-86
2022/01/23 10:32:07;;;;;;;2.22;1.48;;;5.80;99.90;;;;;;5101938;28;20103;-86
2022/01/23 10:34:59;;;;;;;1.40;1.30;;;5.70;99.90;;;;;;5094155;28;20028;-85
2022/01/23 10:37:30;;;;;;;1.33;1.23;;;5.80;99.90;;;;;;5086800;28;20034;-85
2022/01/23 10:39:56;;;;;;;1.40;1.30;;;5.80;99.90;;;;;;5093168;28;20099;-87
2022/01/23 10:46:37;;;;;;;2.55;1.65;;;5.80;99.90;;;;;;5104255;28;20023;-85
2022/01/23 10:48:26;;;;;;;1.80;1.70;;;5.80;99.90;;;;;;5113597;28;20085;-86
2022/01/23 10:51:18;;;;;;;3.17;1.77;;;5.80;99.90;;;;;;5108057;28;20031;-86
2022/01/23 10:54:00;;;;;;;2.38;2.00;;;5.80;99.90;;;;;;5097502;28;20024;-85
2022/01/23 10:56:30;;;;;;;3.20;1.60;;;5.80;99.90;;;;;;5073960;28;20040;-85
2022/01/23 10:59:00;;;;;;;2.85;1.58;;;5.80;99.90;;;;;;5093039;28;20016;-85
2022/01/23 11:01:29;;;;;;;1.10;1.10;;;5.80;99.90;;;;;;5091936;28;20086;-86
2022/01/23 11:04:06;;;;;;;1.42;1.30;;;5.70;99.90;;;;;;5092491;28;20020;-86
2022/01/23 11:06:32;;;;;;;2.15;1.70;;;5.80;99.90;;;;;;5102368;28;20024;-86
2022/01/23 11:09:10;;;;;;;2.10;1.88;;;5.80;99.90;;;;;;5102717;28;20047;-86
2022/01/23 11:11:45;;;;;;;5.68;1.92;;;5.80;99.90;;;;;;5074166;28;20031;-86
2022/01/23 11:19:54;;;;;;;2.50;2.17;;;5.80;99.90;;;;;;5092057;28;20043;-86
2022/01/23 11:22:29;;;;;;;3.35;2.15;;;5.90;99.90;;;;;;5100481;28;20027;-85
2022/01/23 11:25:10;;;;;;;5.97;2.17;;;5.90;99.90;;;;;;5094295;28;20476;-86
2022/01/23 11:27:39;;;;;;;2.67;2.47;;;6.00;99.90;;;;;;5105088;28;20028;-86
2022/01/23 11:30:11;;;;;;;5.75;2.33;;;6.00;99.90;;;;;;5078220;28;20028;-86
2022/01/23 11:32:40;;;;;;;2.70;2.50;;;6.00;99.90;;;;;;5103065;28;20158;-86
2022/01/23 11:35:19;;;;;;;3.13;2.60;;;6.00;99.90;;;;;;5091116;28;20024;-85
2022/01/23 11:37:51;;;;;;;3.15;2.85;;;6.10;99.90;;;;;;5094938;28;20016;-86
2022/01/23 11:40:35;;;;;;;3.88;2.75;;;6.10;99.90;;;;;;5096110;28;20031;-86
2022/01/23 11:53:55;;;;;;;6.60;2.85;;;6.10;99.90;;;;;;5112063;28;20027;-86
2022/01/23 11:56:31;;;;;;;3.42;3.10;;;6.10;99.90;;;;;;5105202;28;20073;-86
2022/01/23 11:59:17;;;;;;;2.92;2.60;;;6.00;99.90;;;;;;5108035;28;20020;-86
2022/01/23 12:01:45;;;;;;;5.82;2.85;;;6.00;99.90;;;;;;5084651;28;20016;-85
2022/01/23 12:04:20;;;;;;;5.47;3.13;;;6.00;99.90;;;;;;5081344;28;20066;-86
2022/01/23 12:07:20;;;;;;;3.63;2.83;;;6.00;99.90;;;;;;5088829;28;20028;-86
2022/01/23 12:10:09;;;;;;;5.28;3.05;;;6.10;99.90;;;;;;5116066;27;20483;-86
2022/01/23 12:18:20;;;;;;;4.90;2.30;;;6.10;99.90;;;;;;5109809;28;20113;-85
2022/01/23 12:20:48;;;;;;;6.85;2.55;;;6.00;99.90;;;;;;5085922;28;20533;-85
2022/01/23 12:23:16;;;;;;;3.28;2.28;;;6.00;99.90;;;;;;5098916;28;20031;-86
2022/01/23 12:25:45;;;;;;;2.30;2.17;;;6.10;99.90;;;;;;5097863;28;20033;-87
2022/01/23 12:28:16;;;;;;;4.88;2.63;;;6.10;99.90;;;;;;5115804;28;20437;-85
2022/01/23 12:30:44;;;;;;;8.00;2.67;;;6.10;99.90;;;;;;5115955;28;20039;-86
2022/01/23 12:33:29;;;;;;;2.70;2.50;;;6.00;99.90;;;;;;5115875;28;20032;-85
2022/01/23 12:36:07;;;;;;;5.97;2.78;;;6.00;99.90;;;;;;5115878;28;20098;-85
2022/01/23 12:38:46;;;;;;;5.22;2.65;;;6.00;99.90;;;;;;5090972;28;20116;-85
2022/01/23 12:41:39;;;;;;;4.65;2.95;;;6.00;99.90;;;;;;5076829;28;20028;-85
2022/01/23 12:44:38;;;;;;;6.88;2.97;;;6.00;99.90;;;;;;5104656;28;20017;-85
2022/01/23 12:47:26;;;;;;;5.55;2.13;;;6.00;99.90;;;;;;5096652;28;20035;-85
2022/01/23 12:49:52;;;;;;;5.50;2.65;;;6.00;99.90;;;;;;5100613;27;20027;-85
2022/01/23 12:52:22;;;;;;;2.53;2.30;;;6.10;99.90;;;;;;5114897;28;20023;-86
2022/01/23 12:54:59;;;;;;;3.75;2.65;;;6.00;99.90;;;;;;5109874;28;20063;-85
2022/01/23 12:57:31;;;;;;;2.72;2.40;;;6.00;99.90;;;;;;5103430;28;20508;-85
2022/01/23 13:00:01;;;;;;;4.65;2.90;;;6.00;99.90;;;;;;5105789;28;20072;-85
2022/01/23 13:02:45;;;;;;;3.72;2.80;;;6.00;99.90;;;;;;5106166;28;20475;-85
2022/01/23 13:05:12;;;;;;;7.05;3.22;;;6.10;99.90;;;;;;5109368;28;20077;-85
2022/01/23 13:07:43;;;;;;;3.03;2.30;;;6.10;99.90;;;;;;5108074;28;20125;-85
2022/01/23 13:18:31;;;;;;;5.88;2.60;;;6.10;99.90;;;;;;5109700;28;20437;-85
2022/01/23 13:32:21;;;;;;;5.85;2.95;;;6.00;99.90;;;;;;5088177;28;20020;-86
2022/01/23 13:34:49;;;;;;;3.15;2.17;;;6.00;99.90;;;;;;5075766;28;20468;-85
2022/01/23 13:37:30;;;;;;;3.58;2.10;;;6.00;99.90;;;;;;5094397;28;20012;-85
2022/01/23 13:40:04;;;;;;;4.47;2.78;;;5.90;99.90;;;;;;5085604;28;20029;-85
2022/01/23 13:51:31;;;;;;;9.00;2.63;;;5.90;99.90;;;;;;5072567;28;20028;-86
2022/01/23 14:02:46;;;;;;;3.63;2.88;;;5.90;99.90;;;;;;5084411;28;20077;-85
2022/01/23 14:05:18;;;;;;;6.63;3.20;;;5.90;99.90;;;;;;5113618;28;20031;-85
2022/01/23 14:07:48;;;;;;;4.28;2.90;;;5.90;99.90;;;;;;5095872;28;20032;-86
2022/01/23 14:10:23;;;;;;;4.10;3.40;;;5.80;99.90;;;;;;5095371;28;20042;-86
2022/01/23 14:12:51;;;;;;;3.95;3.13;;;5.80;99.90;;;;;;5101847;28;20257;-85
2022/01/23 14:15:23;;;;;;;7.78;2.95;;;5.80;99.90;;;;;;5113755;28;20054;-86
2022/01/23 14:18:07;;;;;;;5.07;3.22;;;5.80;99.90;;;;;;5113663;28;20190;-84
2022/01/23 14:20:43;;;;;;;3.42;3.03;;;5.80;99.90;;;;;;5113535;28;20023;-84
2022/01/23 14:23:17;;;;;;;3.60;3.30;;;5.80;99.90;;;;;;5113562;28;20164;-84
2022/01/23 14:26:08;;;;;;;5.88;3.97;;;5.80;99.90;;;;;;5114042;28;20379;-85
2022/01/23 14:28:40;;;;;;;4.88;3.83;;;5.80;99.90;;;;;;5099692;28;20024;-84
2022/01/23 14:31:14;;;;;;;5.18;4.20;;;5.80;99.90;;;;;;5092431;28;20024;-85
2022/01/23 14:33:59;;;;;;;6.47;4.63;;;5.80;99.90;;;;;;5093200;28;20115;-84
2022/01/23 14:36:31;;;;;;;9.63;5.20;;;5.80;99.90;;;;;;5104319;28;20059;-84
2022/01/23 14:39:03;;;;;;;7.82;4.72;;;5.80;99.90;;;;;;5113576;28;20571;-84
2022/01/23 14:41:40;;;;;;;9.02;6.05;;;5.80;99.90;;;;;;5096477;28;20545;-84
2022/01/23 14:44:29;;;;;;;8.95;5.97;;;5.90;99.90;;;;;;5113619;28;20483;-84
2022/01/23 14:47:02;;;;;;;9.13;5.95;;;5.80;99.90;;;;;;5111812;28;20046;-84
2022/01/23 14:49:30;;;;;;;9.63;6.07;;;5.80;99.90;;;;;;5092590;28;20035;-84
2022/01/23 14:52:00;;;;;;;12.48;8.15;;;5.80;99.90;;;;;;5092962;28;20099;-84
2022/01/23 14:54:30;;;;;;;10.73;7.47;;;5.80;99.90;;;;;;5093171;28;20031;-85
2022/01/23 14:56:59;;;;;;;13.90;7.97;;;5.80;99.90;;;;;;5093057;28;20046;-84
2022/01/23 14:59:29;;;;;;;12.85;9.02;;;5.80;99.90;;;;;;5092984;28;20385;-86
2022/01/23 15:01:56;;;;;;;14.18;8.23;;;5.80;99.90;;;;;;5092935;28;20498;-84
2022/01/23 15:04:23;;;;;;;12.43;8.98;;;5.80;99.90;;;;;;5080950;28;20028;-83
2022/01/23 15:06:52;;;;;;;12.95;8.68;;;5.80;99.90;;;;;;5105823;28;20028;-84
2022/01/23 15:09:19;;;;;;;13.52;9.15;;;5.80;99.90;;;;;;5092906;28;20081;-84
2022/01/23 15:11:50;;;;;;;15.00;8.68;;;5.70;99.90;;;;;;5074743;28;20507;-84
2022/01/23 15:14:15;;;;;;;14.38;8.43;;;5.80;99.90;;;;;;5074647;28;20024;-85
2022/01/23 15:16:41;;;;;;;15.70;9.23;;;5.80;99.90;;;;;;5092783;28;20027;-84
2022/01/23 15:19:10;;;;;;;16.00;9.82;;;5.80;99.90;;;;;;5092596;28;20763;-84
2022/01/23 15:21:36;;;;;;;17.48;10.13;;;5.80;99.90;;;;;;5092652;28;20062;-84
2022/01/23 15:24:04;;;;;;;16.10;9.60;;;5.70;99.90;;;;;;5094616;28;20024;-84
2022/01/23 15:26:32;;;;;;;17.95;11.05;;;5.70;99.90;;;;;;5113090;28;20024;-84
2022/01/23 15:28:57;;;;;;;17.92;10.90;;;5.80;99.90;;;;;;5084860;28;20020;-84
2022/01/23 15:31:26;;;;;;;17.25;10.32;;;5.80;99.90;;;;;;5074777;28;20020;-84
2022/01/23 15:33:52;;;;;;;23.70;12.18;;;5.80;99.90;;;;;;5094858;28;20032;-83
2022/01/23 15:36:17;;;;;;;26.65;12.00;;;5.80;99.90;;;;;;5092662;28;20137;-84
2022/01/23 15:38:44;;;;;;;29.33;12.82;;;5.80;99.90;;;;;;5104290;28;20017;-84
2022/01/23 15:41:11;;;;;;;22.63;13.10;;;5.80;99.90;;;;;;5093401;28;20468;-84
2022/01/23 15:43:37;;;;;;;22.33;12.25;;;5.80;99.90;;;;;;5112399;28;20020;-86
2022/01/23 15:46:03;;;;;;;19.42;11.70;;;5.80;99.90;;;;;;5088551;28;20039;-83
2022/01/23 15:48:30;;;;;;;22.50;12.43;;;5.80;99.90;;;;;;5096632;28;20051;-83
2022/01/23 15:50:59;;;;;;;20.95;12.32;;;5.80;99.90;;;;;;5096416;28;20027;-83
2022/01/23 15:53:25;;;;;;;19.25;12.57;;;5.80;99.90;;;;;;5101276;28;20028;-83
2022/01/23 15:55:51;;;;;;;21.98;11.75;;;5.80;99.90;;;;;;5096179;28;20043;-84
2022/01/23 15:58:20;;;;;;;26.45;12.82;;;5.80;99.90;;;;;;5080148;28;20028;-83
2022/01/23 16:00:46;;;;;;;19.27;11.95;;;5.80;99.90;;;;;;5078213;28;20028;-83
2022/01/23 16:03:13;;;;;;;19.55;12.23;;;5.70;99.90;;;;;;5096636;28;20357;-83
2022/01/23 16:05:39;;;;;;;17.88;11.50;;;5.70;99.90;;;;;;5116214;28;20034;-87
2022/01/23 16:08:04;;;;;;;18.70;11.90;;;5.80;99.90;;;;;;5097260;28;20095;-89
2022/01/23 16:10:36;;;;;;;17.30;11.13;;;5.70;99.90;;;;;;5093180;28;20042;-88
2022/01/23 16:13:02;;;;;;;18.73;11.32;;;5.70;99.90;;;;;;5116539;28;20020;-88
2022/01/23 16:15:29;;;;;;;19.60;11.18;;;5.70;99.90;;;;;;5116693;28;20028;-87
2022/01/23 16:18:02;;;;;;;20.77;11.35;;;5.70;99.90;;;;;;5116769;28;20144;-88
2022/01/23 16:20:28;;;;;;;15.75;10.38;;;5.70;99.90;;;;;;5113661;28;20016;-87
2022/01/23 16:22:53;;;;;;;19.73;10.82;;;5.80;99.90;;;;;;5096225;28;20024;-88
2022/01/23 16:25:21;;;;;;;17.73;11.15;;;5.80;99.90;;;;;;5113768;28;20024;-87
2022/01/23 16:27:47;;;;;;;19.42;12.48;;;5.80;99.90;;;;;;5116512;28;20047;-87
2022/01/23 16:30:15;;;;;;;18.45;11.00;;;5.80;99.90;;;;;;5116275;28;20066;-87
2022/01/23 16:32:42;;;;;;;21.30;12.65;;;5.80;99.90;;;;;;5116164;28;20364;-87
2022/01/23 16:35:09;;;;;;;19.95;12.10;;;5.70;99.90;;;;;;5081115;28;20068;-88
2022/01/23 16:37:35;;;;;;;17.98;11.63;;;5.80;99.90;;;;;;5106347;28;20019;-87
2022/01/23 16:40:04;;;;;;;18.40;11.32;;;5.80;99.90;;;;;;5116146;28;20103;-87
2022/01/23 16:42:37;;;;;;;18.35;12.27;;;5.80;99.90;;;;;;5115800;28;20042;-88